createdAt,value
2023-04-24T00:08:55.867Z,74.03
2023-04-24T00:18:55.832Z,74.16
2023-04-24T00:28:56.204Z,73.84
2023-04-24T00:38:56.044Z,73.46
2023-04-24T00:48:56.677Z,72.69
2023-04-24T00:58:57.140Z,72.13
2023-04-24T01:08:57.001Z,71.84
2023-04-24T01:18:56.934Z,71.75
2023-04-24T01:28:56.974Z,71.69
2023-04-24T01:38:58.913Z,71.54
2023-04-24T01:48:59.087Z,71.42
2023-04-24T01:58:59.012Z,71.41
2023-04-24T02:08:58.983Z,71.79
2023-04-24T02:18:59.059Z,72.31
2023-04-24T02:28:59.021Z,72.77
2023-04-24T02:38:59.091Z,72.96
2023-04-24T02:48:59.898Z,73.12
2023-04-24T02:59:00.359Z,73.18
2023-04-24T03:09:00.401Z,73.24
2023-04-24T03:19:01.344Z,73.20
2023-04-24T03:29:01.550Z,73.17
2023-04-24T03:39:03.970Z,73.04
2023-04-24T03:49:06.138Z,72.77
2023-04-24T03:59:06.659Z,72.66
2023-04-24T04:09:07.933Z,72.65
2023-04-24T04:19:09.391Z,72.68
2023-04-24T04:29:11.080Z,72.63
2023-04-24T04:39:31.227Z,72.85
2023-04-24T04:49:31.924Z,72.83
2023-04-24T04:59:34.029Z,72.80
2023-04-24T05:09:36.102Z,73.79
2023-04-24T05:19:38.688Z,74.29
2023-04-24T05:29:39.597Z,74.63
2023-04-24T05:39:39.785Z,74.62
2023-04-24T05:49:41.973Z,74.79
2023-04-24T05:59:43.112Z,76.06
2023-04-24T06:09:43.938Z,77.09
2023-04-24T06:20:05.897Z,77.32
2023-04-24T06:30:07.523Z,77.39
2023-04-24T06:40:08.435Z,77.35
2023-04-24T06:50:09.510Z,78.62
2023-04-24T07:00:10.343Z,78.76
2023-04-24T07:10:10.468Z,79.50
2023-04-24T07:20:11.164Z,79.90
2023-04-24T07:30:11.527Z,80.08
2023-04-24T07:40:11.459Z,80.17
2023-04-24T07:50:11.520Z,79.95
2023-04-24T08:00:14.343Z,80.25
2023-04-24T08:10:14.539Z,80.66
2023-04-24T08:20:14.544Z,80.36
2023-04-24T08:30:14.481Z,80.75
2023-04-24T08:40:15.243Z,81.17
2023-04-24T08:50:15.905Z,81.72
2023-04-24T09:00:16.589Z,82.09
2023-04-24T09:10:16.507Z,82.32
2023-04-24T09:20:16.652Z,81.33
2023-04-24T09:30:16.532Z,81.15
2023-04-24T09:40:16.765Z,81.85
2023-04-24T09:50:16.885Z,81.61
2023-04-24T10:00:17.636Z,80.70
2023-04-24T10:10:17.696Z,80.82
2023-04-24T10:20:17.713Z,79.95
2023-04-24T10:30:30.561Z,80.02
2023-04-24T10:40:31.075Z,77.73
2023-04-24T10:50:31.674Z,77.85
2023-04-24T11:00:31.656Z,76.36
2023-04-24T11:10:31.709Z,75.65
2023-04-24T11:20:31.705Z,75.07
2023-04-24T11:30:31.729Z,76.15
2023-04-24T11:40:31.938Z,75.03
2023-04-24T11:50:31.686Z,73.57
2023-04-24T12:00:32.122Z,70.95
2023-04-24T12:10:32.770Z,72.31
2023-04-24T12:20:32.835Z,72.72
2023-04-24T12:30:32.893Z,70.88
2023-04-24T12:40:32.865Z,69.33
2023-04-24T12:50:32.790Z,68.56
2023-04-24T13:00:32.857Z,66.70
2023-04-24T13:10:32.871Z,64.26
2023-04-24T13:20:32.847Z,64.26
2023-04-24T13:30:33.067Z,61.41
2023-04-24T13:40:32.940Z,59.60
2023-04-24T13:50:32.888Z,58.17
2023-04-24T14:00:33.113Z,59.03
2023-04-24T14:10:33.006Z,57.09
2023-04-24T14:20:32.985Z,56.26
2023-04-24T14:30:32.911Z,55.32
2023-04-24T14:40:56.099Z,54.34
2023-04-24T14:50:35.382Z,54.56
2023-04-24T15:00:36.206Z,53.42
2023-04-24T15:10:36.119Z,53.73
2023-04-24T15:20:38.012Z,52.88
2023-04-24T15:30:38.078Z,53.50
2023-04-24T15:40:38.085Z,52.91
2023-04-24T15:50:38.126Z,52.60
2023-04-24T16:00:38.047Z,52.98
2023-04-24T16:10:38.144Z,53.38
2023-04-24T16:20:38.149Z,53.76
2023-04-24T16:30:39.792Z,54.17
2023-04-24T16:40:41.821Z,54.31
2023-04-24T16:50:42.132Z,54.43
2023-04-24T17:00:42.317Z,54.46
2023-04-24T17:10:42.220Z,55.23
2023-04-24T17:20:42.254Z,55.94
2023-04-24T17:30:42.195Z,56.67
2023-04-24T17:40:42.313Z,57.44
2023-04-24T17:50:42.232Z,58.12
2023-04-24T18:00:42.201Z,58.83
2023-04-24T18:10:44.376Z,59.12
2023-04-24T18:20:44.307Z,59.61
2023-04-24T18:30:44.281Z,60.18
2023-04-24T18:40:44.319Z,60.70
2023-04-24T18:50:44.316Z,61.33
2023-04-24T19:00:44.392Z,61.82
2023-04-24T19:10:44.419Z,62.45
2023-04-24T19:20:45.125Z,62.92
2023-04-24T19:30:45.728Z,63.44
2023-04-24T19:40:46.449Z,63.89
2023-04-24T19:50:46.439Z,64.56
2023-04-24T20:00:46.388Z,65.10
2023-04-24T20:10:46.465Z,65.60
2023-04-24T20:20:46.356Z,66.03
2023-04-24T20:30:46.455Z,66.48
2023-04-24T20:40:57.244Z,66.83
2023-04-24T20:50:50.062Z,67.31
2023-04-24T21:00:50.539Z,67.69
2023-04-24T21:10:51.479Z,68.12
2023-04-24T21:20:52.883Z,68.51
2023-04-24T21:30:53.548Z,68.90
2023-04-24T21:40:53.570Z,69.23
2023-04-24T21:50:53.566Z,69.58
2023-04-24T22:00:53.542Z,69.91
2023-04-24T22:10:54.279Z,70.17
2023-04-24T22:20:54.491Z,70.46
2023-04-24T22:30:54.600Z,70.62
2023-04-24T22:40:54.617Z,70.83
2023-04-24T22:50:55.561Z,71.07
2023-04-24T23:00:55.782Z,71.26
2023-04-24T23:10:55.644Z,71.45
2023-04-24T23:20:55.960Z,71.66
2023-04-24T23:30:55.731Z,71.90
2023-04-24T23:40:55.787Z,72.08
2023-04-24T23:50:55.663Z,72.19
